PWSweather.com
Personal Weather Stations
Station Observations
VPOKROGLO
Kal Nad Kanalom, PrimorskaSI

Kal Nad KanalomPrimorskaSI

Lat: 46.072, Lon: 13.734

Elevation: 2526

Station Type: WS-2355

https://okroglovreme.com

Latest ConditionsUpdated 5:45:00 AM GMT+01:01 Thursday, Apr 25, 2019
Currently Today's Max Today's Min Today's Average
Temperature 50.5°F10.3°C 51.4°F10.8°C 50.5°F10.3°C 51.1°F10.6°C
Dew Point 47.4°F8.6°C 48.6°F9.2°C 47.3°F8.5°C 48.0°F8.9°C
Winds 0.1 mph S0.2 kmh S 5.5 mph -8.9 kmh - - 1.9 mph 3.1 kmh
Wind Gusts 1.6 mph2.6 kmh 9.8 mph15.8 kmh - -
Humidity 89% 90% 88% 89%
Pressure 30.14 in1020.7 mb 30.14 in1020.7 mb 30.11 in1019.6 mb -
Hour Temp Dew Point Humidity Winds Wind Gusts Pressure Precip Precip Rate Daily Precip Total
05:45 AM 50.5°F10.3°C 47.4°F8.6°C 89% 0.1 mph S0.2 kmh S 1.6 mph2.6 kmh 30.14 in1020.7 mb 0.00 in0.0 mm 0.00 in0.0 mm 0.00 in0.0 mm
05:30 AM 50.7°F10.4°C 47.6°F8.7°C 89% 2.8 mph S4.5 kmh S 7.6 mph12.2 kmh 30.12 in1020.0 mb 0.00 in0.0 mm 0.00 in0.0 mm 0.00 in0.0 mm
05:15 AM 50.7°F10.4°C 47.3°F8.5°C 88% 3.5 mph SSE5.6 kmh SSE 8.1 mph13.0 kmh 30.13 in1020.3 mb 0.00 in0.0 mm 0.00 in0.0 mm 0.00 in0.0 mm
05:00 AM 51.1°F10.6°C 47.6°F8.7°C 88% 4.9 mph S7.9 kmh S 9.6 mph15.4 kmh 30.13 in1020.3 mb 0.00 in0.0 mm 0.00 in0.0 mm 0.00 in0.0 mm
04:45 AM 51.1°F10.6°C 48.0°F8.9°C 89% 5.5 mph S8.9 kmh S 9.8 mph15.8 kmh 30.12 in1020.0 mb 0.00 in0.0 mm 0.00 in0.0 mm 0.00 in0.0 mm
04:30 AM 51.1°F10.6°C 48.0°F8.9°C 89% 4.2 mph S6.8 kmh S 7.8 mph12.6 kmh 30.12 in1020.0 mb 0.00 in0.0 mm 0.00 in0.0 mm 0.00 in0.0 mm
04:15 AM 50.9°F10.5°C 47.8°F8.8°C 89% 1.6 mph S2.6 kmh S 6.5 mph10.5 kmh 30.12 in1020.0 mb 0.00 in0.0 mm 0.00 in0.0 mm 0.00 in0.0 mm
04:00 AM 51.1°F10.6°C 48.0°F8.9°C 89% Calm Calm -- 30.12 in1020.0 mb 0.00 in0.0 mm 0.00 in0.0 mm 0.00 in0.0 mm
03:45 AM 51.1°F10.6°C 48.0°F8.9°C 89% Calm Calm -- 30.12 in1020.0 mb 0.00 in0.0 mm 0.00 in0.0 mm 0.00 in0.0 mm
03:30 AM 51.1°F10.6°C 48.0°F8.9°C 89% Calm Calm -- 30.13 in1020.3 mb 0.00 in0.0 mm 0.00 in0.0 mm 0.00 in0.0 mm
03:15 AM 51.1°F10.6°C 48.0°F8.9°C 89% Calm Calm -- 30.13 in1020.3 mb 0.00 in0.0 mm 0.00 in0.0 mm 0.00 in0.0 mm
03:00 AM 51.1°F10.6°C 48.0°F8.9°C 89% 0.1 mph SSW0.2 kmh SSW 1.6 mph2.6 kmh 30.13 in1020.3 mb 0.00 in0.0 mm 0.00 in0.0 mm 0.00 in0.0 mm
02:45 AM 51.3°F10.7°C 48.1°F8.9°C 89% Calm Calm -- 30.13 in1020.3 mb 0.00 in0.0 mm 0.00 in0.0 mm 0.00 in0.0 mm
02:30 AM 51.3°F10.7°C 48.1°F8.9°C 89% Calm Calm -- 30.12 in1020.0 mb 0.00 in0.0 mm 0.00 in0.0 mm 0.00 in0.0 mm
02:15 AM 51.4°F10.8°C 48.3°F9.1°C 89% 0.7 mph SSW1.1 kmh SSW 3.6 mph5.8 kmh 30.12 in1020.0 mb 0.00 in0.0 mm 0.00 in0.0 mm 0.00 in0.0 mm
02:00 AM 51.4°F10.8°C 48.3°F9.1°C 89% 0.4 mph SSW0.6 kmh SSW 2.9 mph4.7 kmh 30.12 in1020.0 mb 0.00 in0.0 mm 0.00 in0.0 mm 0.00 in0.0 mm
01:45 AM 51.4°F10.8°C 48.3°F9.1°C 89% 1.0 mph SSW1.6 kmh SSW 3.1 mph5.0 kmh 30.12 in1020.0 mb 0.00 in0.0 mm 0.00 in0.0 mm 0.00 in0.0 mm
01:30 AM 51.3°F10.7°C 48.1°F8.9°C 89% 1.4 mph SSW2.3 kmh SSW 3.4 mph5.5 kmh 30.12 in1020.0 mb 0.00 in0.0 mm 0.00 in0.0 mm 0.00 in0.0 mm
01:15 AM 51.1°F10.6°C 48.0°F8.9°C 89% 2.2 mph SSW3.5 kmh SSW 6.7 mph10.8 kmh 30.12 in1020.0 mb 0.00 in0.0 mm 0.00 in0.0 mm 0.00 in0.0 mm
01:00 AM 51.1°F10.6°C 48.0°F8.9°C 89% 3.6 mph SSW5.8 kmh SSW 7.6 mph12.2 kmh 30.12 in1020.0 mb 0.00 in0.0 mm 0.00 in0.0 mm 0.00 in0.0 mm
12:45 AM 51.4°F10.8°C 48.6°F9.2°C 90% 4.5 mph SW7.2 kmh SW 9.2 mph14.8 kmh 30.12 in1020.0 mb 0.00 in0.0 mm 0.00 in0.0 mm 0.00 in0.0 mm
12:30 AM 51.4°F10.8°C 48.6°F9.2°C 90% 3.0 mph W4.8 kmh W 7.8 mph12.6 kmh 30.12 in1020.0 mb 0.00 in0.0 mm 0.00 in0.0 mm 0.00 in0.0 mm
12:15 AM 51.3°F10.7°C 48.4°F9.1°C 90% 2.7 mph W4.3 kmh W 5.4 mph8.7 kmh 30.11 in1019.6 mb 0.00 in0.0 mm 0.00 in0.0 mm 0.00 in0.0 mm
12:00 AM 51.4°F10.8°C 48.3°F9.1°C 89% 3.4 mph W5.5 kmh W 6.5 mph10.5 kmh 30.11 in1019.6 mb 0.00 in0.0 mm 0.00 in0.0 mm 0.00 in0.0 mm